createdAt,value
2022-10-20T00:00:00.328Z,73
2022-10-20T00:10:00.355Z,73
2022-10-20T00:20:00.372Z,73
2022-10-20T00:30:00.365Z,74
2022-10-20T00:40:00.415Z,74
2022-10-20T00:50:00.409Z,74
2022-10-20T01:00:00.394Z,74
2022-10-20T01:10:00.331Z,74
2022-10-20T01:20:00.355Z,75
2022-10-20T01:30:00.365Z,75
2022-10-20T01:40:00.325Z,75
2022-10-20T01:50:00.365Z,75
2022-10-20T02:00:00.431Z,75
2022-10-20T02:10:00.389Z,75
2022-10-20T02:20:00.399Z,76
2022-10-20T02:30:00.331Z,76
2022-10-20T02:40:00.353Z,76
2022-10-20T02:50:00.349Z,76
2022-10-20T03:00:00.346Z,76
2022-10-20T03:10:00.429Z,76
2022-10-20T03:20:00.373Z,77
2022-10-20T03:30:00.357Z,77
2022-10-20T03:40:00.363Z,77
2022-10-20T03:50:00.504Z,77
2022-10-20T04:00:00.400Z,77
2022-10-20T04:10:00.348Z,77
2022-10-20T04:20:00.412Z,77
2022-10-20T04:30:00.408Z,77
2022-10-20T04:40:00.327Z,76
2022-10-20T04:50:00.369Z,76
2022-10-20T05:00:00.357Z,76
2022-10-20T05:10:00.384Z,76
2022-10-20T05:20:00.347Z,76
2022-10-20T05:30:00.413Z,76
2022-10-20T05:40:00.374Z,76
2022-10-20T05:50:00.353Z,76
2022-10-20T06:00:00.351Z,76
2022-10-20T06:10:00.378Z,76
2022-10-20T06:20:00.672Z,76
2022-10-20T06:30:00.353Z,76
2022-10-20T06:40:00.397Z,75
2022-10-20T06:50:00.331Z,74
2022-10-20T07:00:00.333Z,74
2022-10-20T07:10:00.339Z,74
2022-10-20T07:20:00.453Z,73
2022-10-20T07:30:00.516Z,73
2022-10-20T07:40:00.299Z,72
2022-10-20T07:50:00.352Z,71
2022-10-20T08:00:00.325Z,71
2022-10-20T08:10:00.326Z,71
2022-10-20T08:20:01.290Z,71
2022-10-20T08:30:23.266Z,70
2022-10-20T08:40:00.338Z,69
2022-10-20T08:50:00.322Z,69
2022-10-20T09:00:00.360Z,69
2022-10-20T09:10:00.367Z,69
2022-10-20T09:20:00.320Z,67
2022-10-20T09:30:00.334Z,67
2022-10-20T09:40:00.334Z,67
2022-10-20T09:50:01.531Z,67
2022-10-20T10:00:25.443Z,67
2022-10-20T10:10:05.639Z,67
2022-10-20T10:20:00.332Z,67
2022-10-20T10:30:00.381Z,67
2022-10-20T10:40:00.317Z,66
2022-10-20T10:50:00.327Z,65
2022-10-20T11:00:00.341Z,65
2022-10-20T11:10:00.416Z,65
2022-10-20T11:20:00.346Z,65
2022-10-20T11:30:00.348Z,64
2022-10-20T11:40:07.819Z,65
2022-10-20T11:50:00.369Z,65
2022-10-20T12:00:00.357Z,65
2022-10-20T12:10:00.326Z,66
2022-10-20T12:20:00.400Z,66
2022-10-20T12:30:00.347Z,65
2022-10-20T12:40:01.390Z,66
2022-10-20T12:50:00.328Z,66
2022-10-20T13:00:00.354Z,66
2022-10-20T13:10:04.484Z,66
2022-10-20T13:20:02.065Z,65
2022-10-20T13:30:00.442Z,66
2022-10-20T13:40:00.335Z,66
2022-10-20T13:50:00.354Z,66
2022-10-20T14:00:00.378Z,66
2022-10-20T14:10:00.376Z,66
2022-10-20T14:20:00.349Z,66
2022-10-20T14:30:00.368Z,66
2022-10-20T14:40:00.526Z,67
2022-10-20T14:50:00.331Z,67
2022-10-20T15:00:00.365Z,67
2022-10-20T15:10:05.554Z,67
2022-10-20T15:20:00.332Z,68
2022-10-20T15:30:00.377Z,68
2022-10-20T15:40:00.337Z,68
2022-10-20T16:00:00.584Z,68
2022-10-20T16:10:00.374Z,69
2022-10-20T16:20:00.327Z,69
2022-10-20T16:30:00.358Z,70
2022-10-20T16:40:00.370Z,70
2022-10-20T16:50:00.358Z,70
2022-10-20T17:00:00.422Z,71
2022-10-20T17:10:00.342Z,71
2022-10-20T17:20:00.342Z,72
2022-10-20T17:30:00.353Z,72
2022-10-20T17:40:00.375Z,72
2022-10-20T17:50:00.514Z,72
2022-10-20T18:00:07.823Z,73
2022-10-20T18:10:00.390Z,73
2022-10-20T18:20:00.356Z,73
2022-10-20T18:30:00.368Z,74
2022-10-20T18:40:00.334Z,74
2022-10-20T18:50:00.367Z,74
2022-10-20T19:00:00.368Z,75
2022-10-20T19:10:00.378Z,75
2022-10-20T19:20:00.377Z,75
2022-10-20T19:30:00.408Z,75
2022-10-20T19:40:00.384Z,75
2022-10-20T19:50:00.394Z,76
2022-10-20T20:00:00.312Z,76
2022-10-20T20:10:00.329Z,76
2022-10-20T20:20:00.395Z,76
2022-10-20T20:30:00.433Z,76
2022-10-20T20:40:00.364Z,76
2022-10-20T20:50:00.355Z,76
2022-10-20T21:00:00.391Z,77
2022-10-20T21:10:00.349Z,77
2022-10-20T21:20:00.378Z,77
2022-10-20T21:30:00.350Z,77
2022-10-20T21:40:00.434Z,77
2022-10-20T21:50:00.389Z,77
2022-10-20T22:00:00.396Z,77
2022-10-20T22:10:00.368Z,77
2022-10-20T22:20:04.320Z,77
2022-10-20T22:30:00.354Z,78
2022-10-20T22:40:00.375Z,78
2022-10-20T22:50:00.393Z,78
2022-10-20T23:00:00.329Z,78
2022-10-20T23:10:00.357Z,78
2022-10-20T23:20:00.339Z,78
2022-10-20T23:30:00.371Z,78
2022-10-20T23:40:00.364Z,79
2022-10-20T23:50:00.344Z,79
